Hauptseite
METAR-TAF:

METAR-TAF

Flughäfen :

Flughafen Saint Brieuc

Saint-Brieuc, Frankreich

Breite: 48-32N, Länge: 002-51W, Höhe: 138 m

Beobachtung

Neuester Wetterbericht von vor 34 Minuten, um 13:00 UTC
Wind 5 kt aus Süd/Südwest, variierte zwischen Ost/Südost und West
Temperatur 29°C
Luftfeuchtigkeit 33%
Luftdruck 1016 hPa
Sichtweite 10 km oder mehr
keine Wolken unter 1500 m und keine Kumulonimbus oder Gewitterwolken

METAR: LFRT 061300Z AUTO 21005KT 110V270 CAVOK 29/11 Q1016

Zeit: 15:34 (13:34 UTC)


TAF: fehlend

Wetterbeobachtungen und Prognosen von mehr als 4000 Flughäfen (METAR und TAF Bericht).

Die verfügbaren Stationen werden durch gelbe und rote Markierungen auf der Karte dargestellt.

Führen Sie die Maus auf sie, um den Namen der Station zu sehen.

Darauf klicken, um die Beobachtung von Wetterbeobachtungen und Prognosen zu sehen.

Um die Karte zu ändern : klicken Sie auf den grünen Tasten mit einem schwarzen Kreuz Zum Vergrößern, auf den grünen Button mit einem Gedankenstrich zu verkleinern, oder auf die grünen Pfeile für benachbarte Karten.


METAR-TAF: